Time;durP1;ratioP1;P1;durP2;ratioP2;P2;SDS_P1;SDS_P2;PMS_P1;PMS_P2;Temp;Humidity;BMP_temperature;BMP_pressure;BME280_temperature;BME280_humidity;BME280_pressure;Samples;Min_cycle;Max_cycle;Signal;HPM_P1;HPM_P2
2023/07/05 00:01:11;;;;;;;11.55;5.20;;;;;;;20.79;62.12;99746.50;7738159;32;37904;-77
2023/07/05 00:05:28;;;;;;;9.43;4.53;;;;;;;20.78;62.50;99750.41;7738062;32;40306;-77
2023/07/05 00:09:45;;;;;;;9.98;4.45;;;;;;;20.84;62.14;99740.75;7737847;32;39963;-77
2023/07/05 00:14:01;;;;;;;10.25;5.03;;;;;;;20.72;62.54;99751.78;7737521;32;37911;-77
2023/07/05 00:18:18;;;;;;;9.40;4.80;;;;;;;20.77;62.19;99752.38;7737768;32;38191;-78
2023/07/05 00:22:34;;;;;;;8.93;4.85;;;;;;;20.70;62.22;99748.56;7737798;32;39451;-78
2023/07/05 00:26:51;;;;;;;12.75;5.00;;;;;;;20.92;61.56;99750.94;7737628;32;40833;-78
2023/07/05 00:31:07;;;;;;;8.15;4.25;;;;;;;20.69;62.17;99752.47;7737537;32;37897;-77
2023/07/05 00:35:23;;;;;;;11.05;4.75;;;;;;;20.88;61.61;99741.66;7737516;32;37023;-78
2023/07/05 00:39:39;;;;;;;9.52;4.93;;;;;;;20.82;61.50;99737.50;7737439;32;39515;-77
2023/07/05 00:43:56;;;;;;;12.18;4.82;;;;;;;20.82;61.40;99735.53;7737371;32;39707;-78
2023/07/05 00:48:17;;;;;;;11.35;5.00;;;;;;;20.76;61.70;99730.56;7737165;32;38629;-78
2023/07/05 00:52:33;;;;;;;13.60;5.22;;;;;;;20.69;62.12;99731.09;7735504;32;37145;-77
2023/07/05 00:57:17;;;;;;;10.43;4.72;;;;;;;20.68;62.14;99725.91;7735787;32;39418;-77
2023/07/05 01:01:33;;;;;;;9.65;4.70;;;;;;;20.64;62.12;99723.00;7736970;32;40793;-77
2023/07/05 01:05:52;;;;;;;10.40;5.10;;;;;;;20.64;62.04;99720.25;7735597;32;38009;-77
2023/07/05 01:10:21;;;;;;;8.38;4.62;;;;;;;20.44;62.91;99717.16;7735553;32;37087;-77
2023/07/05 01:15:25;;;;;;;11.12;4.78;;;;;;;20.37;63.54;99718.81;7735431;32;38296;-78
2023/07/05 01:19:59;;;;;;;10.98;4.85;;;;;;;20.37;63.21;99718.81;7736461;32;40834;-77
2023/07/05 01:24:28;;;;;;;8.45;4.93;;;;;;;20.57;62.10;99718.00;7736421;32;37972;-78
2023/07/05 01:29:06;;;;;;;12.82;4.45;;;;;;;20.84;60.82;99709.47;7736367;32;38003;-77
2023/07/05 01:33:32;;;;;;;9.40;4.95;;;;;;;20.50;62.07;99709.44;7736169;32;39295;-78
2023/07/05 01:37:49;;;;;;;9.48;4.78;;;;;;;20.31;62.86;99721.00;7736274;32;40105;-77
2023/07/05 01:42:06;;;;;;;11.52;5.03;;;;;;;20.34;62.80;99720.34;7735854;32;37904;-77
2023/07/05 01:46:27;;;;;;;11.30;4.35;;;;;;;20.32;62.51;99719.06;7734653;32;37808;-77
2023/07/05 01:51:01;;;;;;;10.90;4.87;;;;;;;20.47;61.79;99715.62;7735747;32;39179;-78
2023/07/05 01:55:27;;;;;;;13.65;4.55;;;;;;;20.38;61.91;99715.72;7734576;32;40063;-78
2023/07/05 02:00:07;;;;;;;10.38;4.65;;;;;;;20.32;61.99;99711.56;7734309;32;37858;-78
2023/07/05 02:04:24;;;;;;;8.38;4.68;;;;;;;20.15;62.62;99706.97;7735365;32;37132;-78
2023/07/05 02:08:45;;;;;;;10.18;4.43;;;;;;;20.04;62.97;99709.34;7738242;32;40264;-77
2023/07/05 02:13:07;;;;;;;9.48;4.70;;;;;;;20.18;62.51;99694.41;7739254;32;40034;-78
2023/07/05 02:17:24;;;;;;;10.85;4.97;;;;;;;20.11;62.54;99699.69;7739199;32;38002;-77
2023/07/05 02:21:40;;;;;;;9.57;4.47;;;;;;;20.10;62.75;99693.34;7739275;32;37066;-78
2023/07/05 02:26:04;;;;;;;11.05;4.75;;;;;;;20.29;61.95;99700.34;7739077;32;39263;-78
2023/07/05 02:30:22;;;;;;;9.43;4.68;;;;;;;20.15;62.43;99701.44;7739042;32;39995;-78
2023/07/05 02:34:40;;;;;;;12.05;5.00;;;;;;;20.42;61.36;99688.16;7738976;32;37595;-78
2023/07/05 02:38:56;;;;;;;11.20;4.35;;;;;;;20.41;61.47;99686.56;7739100;32;36934;-77
2023/07/05 02:43:12;;;;;;;9.55;4.97;;;;;;;20.35;62.30;99693.44;7738933;32;39359;-78
2023/07/05 02:47:29;;;;;;;8.75;4.65;;;;;;;20.11;63.16;99689.44;7738911;32;41174;-77
2023/07/05 02:51:45;;;;;;;11.12;4.65;;;;;;;20.01;63.78;99685.12;7738783;32;37920;-77
2023/07/05 02:56:03;;;;;;;10.02;4.65;;;;;;;20.03;63.47;99685.59;7738842;32;37053;-78
2023/07/05 03:00:21;;;;;;;8.32;4.43;;;;;;;20.10;62.93;99679.50;7738808;32;40195;-77
2023/07/05 03:04:38;;;;;;;9.38;4.62;;;;;;;19.99;63.67;99692.94;7738671;32;40874;-77
2023/07/05 03:08:54;;;;;;;9.27;4.95;;;;;;;20.06;63.14;99681.34;7738486;32;37977;-77
2023/07/05 03:13:11;;;;;;;13.73;5.10;;;;;;;20.14;62.56;99685.97;7738478;32;38154;-78
2023/07/05 03:17:27;;;;;;;11.00;4.80;;;;;;;20.06;63.06;99687.69;7738393;32;39295;-78
2023/07/05 03:21:44;;;;;;;9.43;4.65;;;;;;;19.98;63.54;99684.97;7738368;32;40053;-77
2023/07/05 03:26:02;;;;;;;8.07;4.03;;;;;;;19.97;63.70;99700.78;7738309;32;37676;-78
2023/07/05 03:30:19;;;;;;;9.98;5.07;;;;;;;19.97;63.79;99694.41;7738498;32;37393;-78
2023/07/05 03:34:35;;;;;;;9.85;4.95;;;;;;;20.19;62.96;99693.28;7738350;32;39326;-77
2023/07/05 03:38:52;;;;;;;8.38;4.43;;;;;;;20.21;62.97;99697.34;7738255;32;40025;-77
2023/07/05 03:43:08;;;;;;;11.12;5.18;;;;;;;20.11;63.60;99707.97;7738209;32;37956;-77
2023/07/05 03:47:26;;;;;;;11.82;4.62;;;;;;;20.54;62.14;99692.94;7738216;32;37216;-77
2023/07/05 03:51:43;;;;;;;10.57;5.05;;;;;;;20.35;62.85;99685.16;7738110;32;40295;-78
2023/07/05 03:56:04;;;;;;;9.70;5.10;;;;;;;20.33;63.29;99696.56;7738033;32;39954;-77
2023/07/05 04:00:20;;;;;;;8.20;4.72;;;;;;;20.30;63.89;99704.72;7738120;32;36923;-78
2023/07/05 04:04:36;;;;;;;13.55;4.85;;;;;;;20.23;64.22;99708.88;7738111;32;37076;-78
2023/07/05 04:08:53;;;;;;;11.82;5.30;;;;;;;20.24;64.21;99710.47;7737953;32;40167;-79
2023/07/05 04:13:09;;;;;;;9.35;4.68;;;;;;;20.29;64.51;99700.34;7737545;32;40176;-77
2023/07/05 04:17:29;;;;;;;8.65;4.65;;;;;;;20.38;64.30;99698.31;7737822;32;37977;-77
2023/07/05 04:21:46;;;;;;;7.75;4.50;;;;;;;20.49;63.94;99699.53;7737713;32;37161;-68
2023/07/05 04:26:04;;;;;;;9.63;4.62;;;;;;;20.55;64.39;99698.13;7737236;32;39933;-68
2023/07/05 04:30:21;;;;;;;9.65;4.60;;;;;;;20.83;64.09;99700.31;7736346;32;40863;-68
2023/07/05 04:34:40;;;;;;;12.43;5.32;;;;;;;21.12;63.03;99706.84;7737373;32;38856;-68
2023/07/05 04:38:57;;;;;;;10.77;5.40;;;;;;;21.24;62.58;99712.41;7737454;32;37147;-68
2023/07/05 04:43:14;;;;;;;9.23;4.65;;;;;;;21.42;62.14;99706.63;7737417;32;40501;-68
2023/07/05 04:47:30;;;;;;;10.90;5.37;;;;;;;21.46;61.79;99713.09;7737365;32;40125;-67
2023/07/05 04:51:47;;;;;;;10.25;5.07;;;;;;;21.59;61.51;99711.16;7737132;32;38776;-68
2023/07/05 04:56:03;;;;;;;13.70;5.30;;;;;;;21.63;61.45;99712.91;7737131;32;37066;-68
2023/07/05 05:00:19;;;;;;;12.37;5.85;;;;;;;21.65;61.49;99716.12;7737041;32;39340;-68
2023/07/05 05:04:36;;;;;;;15.85;5.32;;;;;;;21.83;61.00;99707.53;7736889;32;39999;-67
2023/07/05 05:08:52;;;;;;;11.93;5.53;;;;;;;21.85;61.10;99708.81;7736817;32;37547;-73
2023/07/05 05:13:08;;;;;;;11.77;5.40;;;;;;;22.09;60.58;99710.72;7736665;32;37217;-72
2023/07/05 05:17:26;;;;;;;11.63;4.57;;;;;;;22.21;60.30;99714.62;7732279;32;40148;-73
2023/07/05 05:21:43;;;;;;;11.85;5.30;;;;;;;22.25;60.20;99704.41;7728502;32;40906;-72
2023/07/05 05:26:01;;;;;;;12.43;5.57;;;;;;;22.38;60.23;99706.00;7727054;32;39381;-73
2023/07/05 05:30:17;;;;;;;11.57;5.15;;;;;;;22.40;60.53;99711.22;7727930;32;37944;-73
2023/07/05 05:34:33;;;;;;;10.20;5.82;;;;;;;22.39;60.57;99715.97;7728030;32;38695;-73
2023/07/05 05:38:50;;;;;;;11.45;5.62;;;;;;;22.67;60.05;99712.37;7726857;32;40890;-71
2023/07/05 05:43:06;;;;;;;9.00;4.72;;;;;;;22.68;60.21;99712.03;7731178;32;37544;-73
2023/07/05 05:47:22;;;;;;;11.77;4.97;;;;;;;22.87;59.66;99708.56;7729583;32;37446;-72
2023/07/05 05:51:38;;;;;;;14.45;4.72;;;;;;;22.84;60.30;99700.12;7729316;32;40061;-72
2023/07/05 05:55:58;;;;;;;11.45;5.22;;;;;;;22.79;60.48;99695.63;7715667;32;40812;-80
2023/07/05 06:00:14;;;;;;;10.35;5.65;;;;;;;22.77;60.81;99697.97;7698997;32;37636;-80
2023/07/05 06:04:30;;;;;;;11.63;5.45;;;;;;;23.07;60.03;99697.56;7712717;32;37566;-80
2023/07/05 06:08:47;;;;;;;14.52;5.87;;;;;;;23.46;58.97;99688.56;7712752;32;40246;-80
2023/07/05 06:13:03;;;;;;;9.40;4.62;;;;;;;23.58;58.99;99683.69;7723384;32;40716;-80
2023/07/05 06:17:19;;;;;;;12.23;5.00;;;;;;;24.04;58.83;99690.69;7739300;32;38041;-80
2023/07/05 06:21:36;;;;;;;12.77;5.40;;;;;;;24.15;59.38;99677.81;7736221;32;36879;-79
2023/07/05 06:25:52;;;;;;;13.00;5.43;;;;;;;24.20;58.00;99680.31;7719352;32;39361;-79
2023/07/05 06:30:09;;;;;;;9.18;4.72;;;;;;;23.89;57.46;99689.59;7712295;32;40800;-80
2023/07/05 06:34:26;;;;;;;10.40;5.20;;;;;;;24.19;57.30;99687.81;7720770;32;37950;-81
2023/07/05 06:38:42;;;;;;;12.77;5.50;;;;;;;24.12;56.26;99692.47;7712901;32;37085;-81
2023/07/05 06:43:00;;;;;;;9.63;5.30;;;;;;;23.97;56.75;99689.37;7735219;32;39558;-81
2023/07/05 06:47:16;;;;;;;11.12;5.40;;;;;;;24.18;57.08;99693.75;7725435;32;39899;-80
2023/07/05 06:51:33;;;;;;;12.18;5.93;;;;;;;24.64;57.36;99693.91;7710577;32;38653;-81
2023/07/05 06:55:50;;;;;;;13.38;6.07;;;;;;;25.11;56.32;99687.19;7736310;32;37885;-79
2023/07/05 07:00:09;;;;;;;11.80;5.22;;;;;;;25.27;54.28;99675.91;7731370;32;40217;-80
2023/07/05 07:04:25;;;;;;;10.35;5.47;;;;;;;25.65;54.10;99684.47;7735569;32;39876;-83
2023/07/05 07:08:41;;;;;;;9.63;5.25;;;;;;;25.84;53.63;99677.97;7727547;32;37951;-80
2023/07/05 07:12:58;;;;;;;12.82;5.62;;;;;;;26.18;52.62;99669.62;7732042;32;36809;-79
2023/07/05 07:17:14;;;;;;;10.55;5.25;;;;;;;26.35;52.71;99673.81;7730267;32;40055;-79
2023/07/05 07:21:31;;;;;;;12.20;4.82;;;;;;;26.72;50.65;99661.88;7728597;32;40193;-80
2023/07/05 07:25:48;;;;;;;11.60;5.72;;;;;;;26.67;51.43;99671.41;7732004;32;36150;-80
2023/07/05 07:30:04;;;;;;;10.90;4.90;;;;;;;26.59;50.89;99667.69;7729626;32;37907;-79
2023/07/05 07:34:21;;;;;;;10.50;4.80;;;;;;;27.06;49.09;99670.16;7730575;32;39486;-79
2023/07/05 07:38:38;;;;;;;14.68;4.82;;;;;;;27.09;50.50;99664.59;7720733;32;39595;-80
2023/07/05 07:42:55;;;;;;;9.05;4.47;;;;;;;27.56;48.87;99656.56;7711552;32;37935;-70
2023/07/05 07:47:11;;;;;;;11.95;5.50;;;;;;;27.52;47.60;99644.53;7711507;32;37840;-70
2023/07/05 07:51:30;;;;;;;8.55;4.35;;;;;;;27.90;48.20;99647.94;7711362;32;40376;-69
2023/07/05 07:55:49;;;;;;;11.10;5.33;;;;;;;28.05;45.54;99643.25;7719702;32;39190;-69
2023/07/05 08:00:09;;;;;;;9.32;4.78;;;;;;;28.20;45.74;99644.09;7727873;32;328612;-69
2023/07/05 08:04:28;;;;;;;11.63;5.30;;;;;;;28.47;44.57;99644.56;7737005;32;37903;-69
2023/07/05 08:08:44;;;;;;;8.40;4.80;;;;;;;28.39;44.50;99643.75;7738049;32;39438;-70
2023/07/05 08:13:01;;;;;;;16.83;4.70;;;;;;;28.60;44.24;99645.03;7737935;32;40909;-69
2023/07/05 08:17:17;;;;;;;12.30;4.57;;;;;;;28.50;43.81;99643.00;7737621;32;38759;-70
2023/07/05 08:21:33;;;;;;;9.05;4.62;;;;;;;28.64;44.52;99645.84;7737781;32;37265;-69
2023/07/05 08:25:55;;;;;;;13.25;4.70;;;;;;;28.98;44.94;99629.44;7736207;32;40194;-78
2023/07/05 08:30:12;;;;;;;13.95;4.65;;;;;;;29.02;41.97;99626.63;7737811;32;39677;-78
2023/07/05 08:34:30;;;;;;;10.75;5.20;;;;;;;29.06;42.65;99635.03;7737619;32;37915;-77
2023/07/05 08:38:51;;;;;;;10.73;4.55;;;;;;;28.97;39.40;99629.84;7719899;32;36643;-77
2023/07/05 08:43:22;;;;;;;9.68;4.47;;;;;;;29.03;42.07;99623.41;7697236;32;39520;-77
2023/07/05 08:47:54;;;;;;;10.55;4.85;;;;;;;28.76;40.73;99634.22;7697125;32;40034;-78
2023/07/05 08:52:30;;;;;;;10.60;5.47;;;;;;;28.92;41.12;99645.06;7733319;32;38753;-78
2023/07/05 08:56:50;;;;;;;10.27;5.62;;;;;;;29.07;40.10;99648.66;7724283;32;37132;-77
2023/07/05 09:01:17;;;;;;;12.27;5.00;;;;;;;29.20;40.44;99651.88;7723669;32;39096;-78
2023/07/05 09:05:48;;;;;;;12.68;5.32;;;;;;;29.24;40.61;99649.09;7724549;32;39977;-78
2023/07/05 09:10:25;;;;;;;18.20;5.32;;;;;;;29.82;38.95;99641.38;7717920;32;37579;-79
2023/07/05 09:15:16;;;;;;;10.32;5.68;;;;;;;30.18;40.03;99629.97;7728526;32;38028;-78
2023/07/05 09:19:56;;;;;;;9.60;4.90;;;;;;;30.15;39.38;99628.81;7733110;32;38774;-78
2023/07/05 09:24:36;;;;;;;10.60;4.80;;;;;;;30.45;37.68;99625.44;7735303;32;40631;-79
2023/07/05 09:29:19;;;;;;;11.30;5.15;;;;;;;30.71;40.79;99620.44;7726891;32;37697;-79
2023/07/05 09:33:48;;;;;;;8.68;5.03;;;;;;;30.62;39.16;99629.34;7718066;32;37887;-81
2023/07/05 09:38:28;;;;;;;10.98;4.60;;;;;;;30.42;40.00;99625.47;7717402;32;39427;-80
2023/07/05 09:42:57;;;;;;;9.25;4.97;;;;;;;30.58;38.52;99622.97;7729175;32;40807;-80
2023/07/05 09:47:13;;;;;;;11.38;5.05;;;;;;;30.34;38.80;99628.28;7728228;32;38687;-80
2023/07/05 09:51:31;;;;;;;12.50;5.43;;;;;;;30.09;39.66;99622.78;7728782;32;37058;-80
2023/07/05 09:56:08;;;;;;;14.10;5.00;;;;;;;29.86;38.54;99614.88;7715360;32;39328;-80
2023/07/05 10:00:26;;;;;;;14.15;5.10;;;;;;;30.56;40.32;99616.91;7729669;32;39015;-83
2023/07/05 10:04:48;;;;;;;10.35;5.28;;;;;;;30.28;38.26;99615.06;7715614;32;38716;-81
2023/07/05 10:09:22;;;;;;;13.97;4.87;;;;;;;30.50;40.14;99607.34;7729753;32;36995;-82
2023/07/05 10:13:39;;;;;;;10.55;4.68;;;;;;;31.22;37.36;99603.97;7733470;32;39987;-80
2023/07/05 10:17:57;;;;;;;11.20;4.90;;;;;;;31.59;37.47;99602.38;7739245;32;39862;-79
2023/07/05 10:22:16;;;;;;;10.93;5.28;;;;;;;31.85;35.88;99594.44;7739061;32;38014;-80
2023/07/05 10:26:33;;;;;;;12.10;5.37;;;;;;;31.91;33.74;99592.72;7738584;32;38212;-79
2023/07/05 10:30:50;;;;;;;14.07;5.00;;;;;;;31.22;34.50;99590.69;7739218;32;40005;-79
2023/07/05 10:35:23;;;;;;;11.15;5.30;;;;;;;30.79;34.92;99593.84;7723263;32;40387;-78
2023/07/05 10:39:40;;;;;;;8.45;5.18;;;;;;;31.17;35.58;99590.34;7729543;32;37964;-81
2023/07/05 10:44:04;;;;;;;9.55;5.20;;;;;;;30.68;35.66;99591.13;7729352;32;36790;-82
2023/07/05 10:48:48;;;;;;;9.00;5.30;;;;;;;30.81;35.42;99582.19;7729931;32;39134;-82
2023/07/05 10:53:10;;;;;;;11.63;5.30;;;;;;;30.96;35.32;99580.06;7724594;32;40795;-80
2023/07/05 10:57:33;;;;;;;9.20;5.30;;;;;;;31.17;33.75;99567.81;7727345;32;37536;-80
2023/07/05 11:01:58;;;;;;;10.23;5.10;;;;;;;30.42;35.76;99583.28;7737419;32;38835;-80
2023/07/05 11:06:16;;;;;;;10.77;4.80;;;;;;;30.10;35.51;99579.44;7725267;32;39453;-79
2023/07/05 11:10:38;;;;;;;10.23;4.78;;;;;;;30.30;34.24;99567.66;7725173;32;40964;-80
2023/07/05 11:14:59;;;;;;;8.93;5.12;;;;;;;29.88;35.34;99563.91;7738047;32;37968;-81
2023/07/05 11:19:19;;;;;;;15.48;5.03;;;;;;;30.33;34.74;99562.00;7738583;32;37778;-80
2023/07/05 11:23:44;;;;;;;8.27;4.70;;;;;;;30.88;34.36;99556.78;7725186;32;40075;-80
2023/07/05 11:28:00;;;;;;;9.52;4.53;;;;;;;31.04;35.18;99553.44;7738236;32;40891;-79
2023/07/05 11:32:17;;;;;;;10.07;4.07;;;;;;;31.74;33.08;99547.47;7738236;32;38018;-79
2023/07/05 11:36:38;;;;;;;9.98;4.40;;;;;;;31.56;31.23;99538.44;7736448;32;36913;-79
2023/07/05 11:41:01;;;;;;;9.65;4.55;;;;;;;32.15;28.25;99535.25;7735587;32;39197;-79
2023/07/05 11:45:17;;;;;;;9.60;3.97;;;;;;;32.41;28.90;99535.66;7736438;32;40954;-79
2023/07/05 11:49:37;;;;;;;8.40;4.30;;;;;;;32.85;28.39;99533.72;7736925;32;37607;-79
2023/07/05 11:53:55;;;;;;;7.47;3.90;;;;;;;33.07;28.57;99519.22;7724843;32;38038;-79
2023/07/05 11:58:22;;;;;;;7.30;3.87;;;;;;;33.83;29.74;99512.87;7724772;32;38355;-79
2023/07/05 12:02:50;;;;;;;8.98;3.97;;;;;;;33.68;27.14;99507.56;7738207;32;39643;-79
2023/07/05 12:07:08;;;;;;;7.97;4.40;;;;;;;33.25;27.97;99496.31;7738113;32;38521;-79
2023/07/05 12:11:38;;;;;;;8.43;4.75;;;;;;;33.16;28.40;99498.91;7738138;32;37789;-79
2023/07/05 12:15:55;;;;;;;9.23;4.10;;;;;;;33.81;28.35;99492.75;7737970;32;39643;-80
2023/07/05 12:20:37;;;;;;;10.38;4.28;;;;;;;33.87;28.07;99479.66;7737960;32;40900;-79
2023/07/05 12:24:59;;;;;;;6.32;3.50;;;;;;;34.49;26.46;99470.53;7737900;32;37761;-79
2023/07/05 12:29:29;;;;;;;6.37;3.67;;;;;;;35.22;26.98;99462.53;7724507;32;37143;-79
2023/07/05 12:33:53;;;;;;;6.90;3.90;;;;;;;34.72;23.76;99463.88;7724215;32;40199;-79
2023/07/05 12:38:19;;;;;;;6.97;3.75;;;;;;;34.73;23.50;99465.50;7737784;32;40008;-79
2023/07/05 12:42:49;;;;;;;8.60;3.70;;;;;;;34.18;25.52;99451.06;7737571;32;38659;-79
2023/07/05 12:47:16;;;;;;;10.23;4.57;;;;;;;33.44;26.02;99449.50;7737265;32;37889;-79
2023/07/05 12:51:33;;;;;;;8.10;4.28;;;;;;;33.63;29.09;99451.53;7737421;32;40213;-79
2023/07/05 12:55:54;;;;;;;11.85;4.37;;;;;;;33.62;26.84;99435.78;7737252;32;39892;-79
2023/07/05 13:00:14;;;;;;;14.52;5.32;;;;;;;33.81;27.12;99436.22;7723556;32;39351;-79
2023/07/05 13:04:32;;;;;;;8.77;4.35;;;;;;;33.40;31.84;99440.31;7737092;32;38368;-79
2023/07/05 13:08:50;;;;;;;9.07;4.55;;;;;;;33.25;28.21;99429.31;7737007;32;38293;-80
2023/07/05 13:13:26;;;;;;;8.52;4.03;;;;;;;32.44;28.15;99424.78;7723085;32;38862;-80
2023/07/05 13:17:43;;;;;;;9.32;5.12;;;;;;;32.46;29.62;99419.53;7723393;32;38741;-79
2023/07/05 13:22:24;;;;;;;8.07;4.75;;;;;;;33.01;28.77;99405.97;7736632;32;37325;-79
2023/07/05 13:26:40;;;;;;;10.05;4.45;;;;;;;33.33;28.44;99400.94;7736635;32;39315;-79
2023/07/05 13:31:02;;;;;;;8.27;4.40;;;;;;;32.88;28.48;99388.91;7736426;32;40081;-79
2023/07/05 13:35:21;;;;;;;6.87;4.32;;;;;;;32.41;28.81;99389.00;7723136;32;37959;-79
2023/07/05 13:39:37;;;;;;;10.70;4.72;;;;;;;31.93;30.63;99395.81;7722703;32;37024;-79
2023/07/05 13:43:54;;;;;;;8.60;4.05;;;;;;;32.19;30.20;99389.34;7736199;32;40111;-79
2023/07/05 13:48:10;;;;;;;9.68;4.62;;;;;;;32.99;31.20;99376.59;7736095;32;39908;-79
2023/07/05 13:52:27;;;;;;;10.35;4.90;;;;;;;33.22;29.99;99372.91;7735828;32;38795;-79
2023/07/05 13:56:43;;;;;;;14.10;4.80;;;;;;;33.50;28.77;99366.63;7735739;32;37126;-79
2023/07/05 14:01:00;;;;;;;9.00;4.60;;;;;;;33.17;29.49;99360.13;7723405;32;40548;-79
2023/07/05 14:05:17;;;;;;;7.93;4.47;;;;;;;33.24;28.74;99365.59;7739655;32;40513;-79
2023/07/05 14:09:34;;;;;;;13.68;4.70;;;;;;;34.12;27.52;99354.66;7739547;32;38021;-79
2023/07/05 14:13:50;;;;;;;10.32;4.60;;;;;;;33.58;27.27;99349.50;7739258;32;36788;-79
2023/07/05 14:18:12;;;;;;;8.90;4.00;;;;;;;33.43;28.09;99351.88;7739436;32;39434;-79
2023/07/05 14:22:28;;;;;;;9.55;4.62;;;;;;;33.60;27.11;99345.00;7739412;32;39652;-79
2023/07/05 14:26:45;;;;;;;8.90;4.47;;;;;;;33.48;27.43;99351.34;7739197;32;37862;-80
2023/07/05 14:31:02;;;;;;;7.82;4.18;;;;;;;33.51;27.95;99330.69;7739367;32;37222;-80
2023/07/05 14:35:22;;;;;;;11.60;4.62;;;;;;;34.03;27.79;99340.34;7739357;32;39052;-79
2023/07/05 14:39:39;;;;;;;10.23;4.50;;;;;;;33.26;28.46;99339.75;7738992;32;40846;-79
2023/07/05 14:43:55;;;;;;;8.82;4.47;;;;;;;33.24;28.75;99343.00;7739014;32;38767;-78
2023/07/05 14:48:12;;;;;;;12.40;4.55;;;;;;;33.56;28.71;99330.16;7739109;32;38545;-79
2023/07/05 14:52:28;;;;;;;8.50;4.15;;;;;;;33.40;28.18;99332.97;7738855;32;40047;-79
2023/07/05 14:56:45;;;;;;;10.73;4.87;;;;;;;33.60;28.48;99325.22;7738923;32;39948;-79
2023/07/05 15:01:04;;;;;;;17.58;5.03;;;;;;;34.00;27.47;99330.72;7738821;32;38772;-79
2023/07/05 15:05:20;;;;;;;8.57;4.82;;;;;;;33.53;27.80;99330.25;7738781;32;37070;-79
2023/07/05 15:09:36;;;;;;;11.07;5.00;;;;;;;33.76;27.84;99332.16;7738957;32;39309;-79
2023/07/05 15:13:53;;;;;;;8.35;4.50;;;;;;;34.23;26.61;99326.12;7738080;32;40019;-79
2023/07/05 15:18:09;;;;;;;7.55;4.32;;;;;;;34.18;27.28;99324.56;7738612;32;37888;-79
2023/07/05 15:22:26;;;;;;;8.02;4.50;;;;;;;34.38;27.89;99332.97;7738694;32;37174;-79
2023/07/05 15:26:43;;;;;;;8.23;4.32;;;;;;;33.73;28.11;99327.38;7738617;32;39174;-79
2023/07/05 15:31:00;;;;;;;12.32;4.70;;;;;;;34.22;27.19;99322.50;7738516;32;40887;-79
2023/07/05 15:35:18;;;;;;;8.02;4.70;;;;;;;34.24;27.48;99325.66;7738352;32;38722;-79
2023/07/05 15:39:34;;;;;;;9.57;5.18;;;;;;;33.97;27.73;99325.16;7738630;32;35996;-79
2023/07/05 15:43:51;;;;;;;9.63;4.57;;;;;;;33.98;26.71;99330.37;7738497;32;39506;-80
2023/07/05 15:48:07;;;;;;;10.77;4.97;;;;;;;34.45;26.22;99319.88;7724409;32;40790;-79
2023/07/05 15:52:24;;;;;;;7.70;4.57;;;;;;;34.69;26.15;99315.53;7738142;32;38761;-80
2023/07/05 15:56:40;;;;;;;9.55;4.70;;;;;;;34.93;26.18;99320.94;7738286;32;36789;-80
2023/07/05 16:01:02;;;;;;;10.02;5.35;;;;;;;35.00;25.48;99326.41;7738399;32;39397;-80
2023/07/05 16:05:19;;;;;;;11.45;5.10;;;;;;;33.84;26.93;99327.88;7738191;32;39949;-79
2023/07/05 16:09:36;;;;;;;9.10;5.45;;;;;;;33.42;27.00;99325.63;7737961;32;38009;-79
2023/07/05 16:13:52;;;;;;;11.93;4.93;;;;;;;33.09;28.36;99324.75;7738017;32;37055;-80
2023/07/05 16:18:10;;;;;;;13.65;5.75;;;;;;;32.85;28.56;99326.91;7738036;32;39288;-79
2023/07/05 16:22:26;;;;;;;11.07;5.12;;;;;;;32.58;30.00;99327.78;7723363;32;39623;-80
2023/07/05 16:26:43;;;;;;;11.35;5.60;;;;;;;32.34;30.54;99338.34;7738059;32;38019;-80
2023/07/05 16:31:03;;;;;;;9.50;5.50;;;;;;;32.36;30.20;99319.75;7737758;32;36124;-79
2023/07/05 16:35:20;;;;;;;11.38;5.68;;;;;;;32.36;29.53;99319.75;7737625;32;40156;-80
2023/07/05 16:39:37;;;;;;;9.05;4.70;;;;;;;32.25;29.43;99326.81;7737626;32;39991;-79
2023/07/05 16:43:54;;;;;;;11.10;5.65;;;;;;;32.48;30.23;99315.50;7737519;32;37906;-79
2023/07/05 16:48:10;;;;;;;10.98;5.18;;;;;;;32.08;30.06;99309.81;7737494;32;37823;-80
2023/07/05 16:52:27;;;;;;;9.52;5.10;;;;;;;31.80;30.75;99311.84;7723603;32;39384;-79
2023/07/05 16:56:43;;;;;;;12.43;5.82;;;;;;;31.32;30.79;99321.47;7737296;32;40848;-80
2023/07/05 17:01:05;;;;;;;11.77;6.12;;;;;;;31.03;31.87;99309.81;7737224;32;37840;-80
2023/07/05 17:05:21;;;;;;;10.63;5.57;;;;;;;31.62;32.02;99303.72;7737297;32;36536;-80
2023/07/05 17:09:37;;;;;;;10.60;5.30;;;;;;;31.30;32.64;99311.84;7737070;32;39242;-80
2023/07/05 17:13:54;;;;;;;9.65;4.97;;;;;;;30.82;33.92;99320.09;7736703;32;40818;-80
2023/07/05 17:18:10;;;;;;;8.70;5.43;;;;;;;30.86;33.52;99320.06;7736792;32;37665;-80
2023/07/05 17:22:26;;;;;;;11.45;6.28;;;;;;;30.85;33.90;99327.69;7736732;32;37792;-80
2023/07/05 17:26:43;;;;;;;12.35;5.80;;;;;;;31.34;33.11;99321.84;7736610;32;39363;-80
2023/07/05 17:31:06;;;;;;;11.65;5.35;;;;;;;31.39;33.17;99329.00;7736487;32;39947;-80
2023/07/05 17:35:23;;;;;;;10.23;5.40;;;;;;;31.50;32.62;99326.06;7738011;32;38656;-80
2023/07/05 17:39:39;;;;;;;10.98;6.30;;;;;;;31.42;33.56;99331.75;7739893;32;37338;-80
2023/07/05 17:43:56;;;;;;;10.20;5.43;;;;;;;31.52;33.27;99332.84;7739775;32;39424;-80
2023/07/05 17:48:12;;;;;;;11.73;6.60;;;;;;;31.44;34.20;99343.41;7739737;32;39652;-80
2023/07/05 17:52:28;;;;;;;12.07;6.60;;;;;;;31.26;35.77;99340.03;7739700;32;37858;-80
2023/07/05 17:56:45;;;;;;;11.02;5.90;;;;;;;31.12;35.82;99345.87;7739668;32;37198;-80
2023/07/05 18:01:10;;;;;;;11.70;6.55;;;;;;;30.91;36.17;99350.53;7739632;32;39360;-79
2023/07/05 18:05:27;;;;;;;12.00;6.03;;;;;;;30.83;36.29;99352.63;7739613;32;40038;-79
2023/07/05 18:09:43;;;;;;;9.10;5.60;;;;;;;30.67;36.79;99356.03;7739559;32;37837;-79
2023/07/05 18:14:00;;;;;;;13.30;6.10;;;;;;;30.50;38.14;99362.66;7739581;32;37866;-79
2023/07/05 18:18:16;;;;;;;11.15;5.32;;;;;;;30.16;38.96;99363.34;7739392;32;40142;-79
2023/07/05 18:22:33;;;;;;;9.60;5.93;;;;;;;30.07;39.21;99363.84;7739382;32;40938;-79
2023/07/05 18:26:52;;;;;;;13.62;6.40;;;;;;;29.95;39.79;99365.12;7739301;32;38773;-79
2023/07/05 18:31:10;;;;;;;11.32;5.80;;;;;;;29.55;41.42;99361.81;7739422;32;37729;-79
2023/07/05 18:35:27;;;;;;;11.63;6.95;;;;;;;29.27;42.04;99384.44;7725787;32;39422;-79
2023/07/05 18:39:43;;;;;;;16.83;9.57;;;;;;;29.06;42.11;99388.91;7725409;32;40035;-81
2023/07/05 18:44:00;;;;;;;13.00;7.00;;;;;;;29.01;42.22;99390.13;7738260;32;38838;-80
2023/07/05 18:48:17;;;;;;;15.20;6.47;;;;;;;28.80;42.64;99402.25;7738472;32;36955;-80
2023/07/05 18:52:34;;;;;;;11.60;6.10;;;;;;;28.51;44.14;99412.69;7739032;32;39218;-80
2023/07/05 18:56:50;;;;;;;11.80;6.65;;;;;;;28.48;44.33;99414.28;7738982;32;39777;-80
2023/07/05 19:01:13;;;;;;;12.88;6.37;;;;;;;28.18;44.94;99416.69;7738771;32;38446;-80
2023/07/05 19:05:30;;;;;;;12.15;6.00;;;;;;;28.15;45.12;99411.91;7738892;32;38239;-80
2023/07/05 19:09:46;;;;;;;12.70;6.20;;;;;;;28.06;45.42;99427.13;7738877;32;39889;-81
2023/07/05 19:14:03;;;;;;;11.10;5.43;;;;;;;27.87;46.07;99430.25;7738579;32;40105;-79
2023/07/05 19:18:20;;;;;;;12.35;6.75;;;;;;;27.70;46.31;99443.84;7727475;32;38074;-79
2023/07/05 19:22:37;;;;;;;15.95;6.65;;;;;;;27.39;47.44;99447.34;7719858;32;37901;-79
2023/07/05 19:26:56;;;;;;;12.37;6.30;;;;;;;27.36;47.76;99457.34;7725809;32;37950;-79
2023/07/05 19:31:25;;;;;;;13.02;6.40;;;;;;;27.27;48.07;99460.47;7731422;32;39926;-80
2023/07/05 19:35:42;;;;;;;10.48;5.70;;;;;;;27.16;48.21;99470.78;7738197;32;37939;-80
2023/07/05 19:39:59;;;;;;;15.00;6.62;;;;;;;27.12;48.47;99461.59;7738413;32;37290;-80
2023/07/05 19:44:16;;;;;;;10.65;6.37;;;;;;;26.96;48.83;99459.91;7738202;32;40499;-79
2023/07/05 19:48:33;;;;;;;11.52;6.72;;;;;;;26.87;49.12;99467.87;7719806;32;39681;-79
2023/07/05 19:52:49;;;;;;;13.82;6.78;;;;;;;26.78;49.53;99457.00;7726041;32;37910;-80
2023/07/05 19:57:06;;;;;;;17.73;7.00;;;;;;;26.64;49.83;99456.91;7725190;32;37189;-79
2023/07/05 20:01:33;;;;;;;14.13;7.90;;;;;;;26.51;50.04;99456.41;7713822;32;39614;-80
2023/07/05 20:05:57;;;;;;;13.35;7.10;;;;;;;26.24;50.74;99462.16;7714794;32;40738;-79
2023/07/05 20:10:16;;;;;;;12.37;6.75;;;;;;;26.20;50.79;99458.53;7725565;32;38630;-79
2023/07/05 20:14:35;;;;;;;11.40;6.43;;;;;;;26.18;50.72;99469.31;7712792;32;37908;-79